Time;durP1;ratioP1;P1;durP2;ratioP2;P2;SDS_P1;SDS_P2;PMS_P1;PMS_P2;Temp;Humidity;BMP_temperature;BMP_pressure;BME280_temperature;BME280_humidity;BME280_pressure;Samples;Min_cycle;Max_cycle;Signal;HPM_P1;HPM_P2
2023/06/16 00:01:05;;;;;;;3.50;3.30;;;28.10;39.50;;;;;;5021194;28;20444;-68
2023/06/16 00:03:36;;;;;;;3.70;3.40;;;28.10;39.50;;;;;;5009973;28;20476;-67
2023/06/16 00:06:12;;;;;;;4.30;3.73;;;28.10;39.70;;;;;;5028159;28;20946;-67
2023/06/16 00:08:42;;;;;;;3.63;3.37;;;28.10;39.80;;;;;;5036069;28;20801;-67
2023/06/16 00:11:11;;;;;;;4.43;4.07;;;28.10;39.60;;;;;;5025666;28;20857;-68
2023/06/16 00:13:39;;;;;;;3.90;3.60;;;28.10;39.50;;;;;;5038249;28;20854;-66
2023/06/16 00:16:09;;;;;;;5.87;3.60;;;28.10;39.70;;;;;;5007921;28;20476;-66
2023/06/16 00:18:43;;;;;;;4.30;3.90;;;28.10;39.60;;;;;;5009595;28;20558;-67
2023/06/16 00:21:14;;;;;;;3.90;3.60;;;28.10;39.60;;;;;;5014315;28;20799;-67
2023/06/16 00:23:43;;;;;;;4.20;3.80;;;28.10;39.70;;;;;;5027251;28;20479;-67
2023/06/16 00:26:11;;;;;;;4.37;3.97;;;28.10;39.70;;;;;;5028346;28;20464;-67
2023/06/16 00:28:44;;;;;;;3.17;2.93;;;28.10;39.70;;;;;;5035230;28;20564;-67
2023/06/16 00:31:14;;;;;;;3.70;3.40;;;28.10;39.70;;;;;;5022429;28;20543;-68
2023/06/16 00:33:44;;;;;;;4.60;3.53;;;28.00;39.80;;;;;;5016471;28;20472;-68
2023/06/16 00:36:12;;;;;;;5.43;4.10;;;28.00;39.70;;;;;;5022497;28;20551;-67
2023/06/16 00:38:41;;;;;;;3.53;3.23;;;28.10;39.80;;;;;;5021468;28;20495;-68
2023/06/16 00:41:09;;;;;;;3.67;3.37;;;28.00;39.80;;;;;;5021343;28;20452;-68
2023/06/16 00:43:38;;;;;;;4.23;3.90;;;28.00;39.90;;;;;;5027278;28;21011;-68
2023/06/16 00:46:10;;;;;;;5.93;3.67;;;28.00;39.80;;;;;;5026969;28;20570;-67
2023/06/16 00:48:39;;;;;;;4.07;3.67;;;28.00;40.00;;;;;;5038949;28;20460;-68
2023/06/16 00:51:09;;;;;;;4.87;4.23;;;28.00;39.90;;;;;;5023114;28;20952;-67
2023/06/16 00:53:39;;;;;;;3.23;2.97;;;28.00;39.90;;;;;;5031354;28;20476;-67
2023/06/16 00:56:08;;;;;;;4.23;3.93;;;28.00;40.00;;;;;;5043180;28;20472;-67
2023/06/16 00:58:38;;;;;;;3.70;3.40;;;28.00;41.30;;;;;;5024914;28;20473;-67
2023/06/16 01:01:06;;;;;;;5.13;3.47;;;28.00;40.00;;;;;;5032939;28;20448;-67
2023/06/16 01:03:35;;;;;;;4.50;4.10;;;28.00;40.20;;;;;;5040032;28;20848;-69
2023/06/16 01:06:16;;;;;;;3.77;3.50;;;28.00;40.20;;;;;;5036824;28;20475;-67
2023/06/16 01:08:55;;;;;;;4.37;3.30;;;28.00;40.10;;;;;;5024021;28;20467;-67
2023/06/16 01:11:35;;;;;;;3.03;2.83;;;28.00;40.30;;;;;;5027542;28;20448;-67
2023/06/16 01:14:12;;;;;;;4.30;3.90;;;28.00;40.50;;;;;;5045937;28;20474;-68
2023/06/16 01:16:41;;;;;;;3.90;3.60;;;28.00;40.60;;;;;;5026399;28;20851;-67
2023/06/16 01:19:17;;;;;;;3.60;3.33;;;28.00;40.90;;;;;;5022071;28;20471;-67
2023/06/16 01:21:53;;;;;;;3.40;3.20;;;28.00;41.40;;;;;;5033645;28;20457;-67
2023/06/16 01:24:25;;;;;;;3.30;3.10;;;28.00;41.50;;;;;;5029946;28;20899;-67
2023/06/16 01:26:57;;;;;;;3.43;3.13;;;27.90;41.40;;;;;;5033145;28;20802;-67
2023/06/16 01:29:27;;;;;;;3.90;3.60;;;27.90;41.30;;;;;;5041708;28;20452;-67
2023/06/16 01:32:00;;;;;;;4.27;3.40;;;27.90;41.40;;;;;;5024926;28;20472;-67
2023/06/16 01:34:29;;;;;;;4.00;3.50;;;27.90;41.10;;;;;;5023287;28;20862;-67
2023/06/16 01:36:58;;;;;;;3.83;3.53;;;27.90;40.70;;;;;;5040990;28;20742;-68
2023/06/16 01:39:30;;;;;;;3.83;3.53;;;27.90;40.80;;;;;;5037587;28;20510;-68
2023/06/16 01:41:59;;;;;;;4.57;3.60;;;27.90;40.70;;;;;;5045524;28;20878;-66
2023/06/16 01:44:29;;;;;;;4.03;3.73;;;27.90;40.70;;;;;;5026946;28;20903;-68
2023/06/16 01:46:57;;;;;;;3.67;3.33;;;27.90;40.80;;;;;;5036852;28;20973;-67
2023/06/16 01:49:26;;;;;;;3.67;3.37;;;27.90;40.80;;;;;;5018021;28;20489;-67
2023/06/16 01:51:57;;;;;;;4.17;3.87;;;27.90;40.60;;;;;;5028218;28;20442;-67
2023/06/16 01:54:25;;;;;;;3.93;3.63;;;27.80;40.70;;;;;;5041344;28;20449;-67
2023/06/16 01:56:57;;;;;;;3.80;3.50;;;27.90;40.80;;;;;;5022143;28;20470;-67
2023/06/16 01:59:26;;;;;;;3.57;3.27;;;27.90;40.90;;;;;;5019138;28;20535;-67
2023/06/16 02:01:59;;;;;;;3.37;3.17;;;27.90;40.80;;;;;;5020706;28;20528;-67
2023/06/16 02:04:30;;;;;;;4.10;3.50;;;27.90;40.80;;;;;;5025590;28;20891;-68
2023/06/16 02:07:02;;;;;;;4.47;4.17;;;27.80;41.00;;;;;;5020599;28;20480;-68
2023/06/16 02:09:32;;;;;;;3.57;3.27;;;27.80;41.00;;;;;;5019122;28;20445;-67
2023/06/16 02:12:05;;;;;;;3.60;3.37;;;27.80;41.30;;;;;;5023299;28;20536;-67
2023/06/16 02:14:34;;;;;;;4.30;3.90;;;27.80;41.00;;;;;;5022452;28;20453;-67
2023/06/16 02:17:05;;;;;;;5.03;4.10;;;27.80;41.30;;;;;;5022517;28;20891;-67
2023/06/16 02:19:34;;;;;;;3.60;3.30;;;27.80;41.20;;;;;;5030325;28;20998;-68
2023/06/16 02:22:02;;;;;;;3.63;3.33;;;27.80;41.30;;;;;;5034561;28;20868;-67
2023/06/16 02:24:31;;;;;;;3.93;3.60;;;27.80;41.10;;;;;;5045402;28;20538;-68
2023/06/16 02:27:00;;;;;;;3.80;3.50;;;27.80;41.30;;;;;;5029835;28;20468;-68
2023/06/16 02:29:31;;;;;;;3.73;3.47;;;27.80;41.30;;;;;;5034743;28;20578;-67
2023/06/16 02:31:59;;;;;;;4.23;3.90;;;27.80;41.30;;;;;;5021610;28;20448;-67
2023/06/16 02:34:28;;;;;;;4.30;4.00;;;27.80;41.30;;;;;;5024479;28;20845;-68
2023/06/16 02:36:57;;;;;;;3.50;3.20;;;27.80;41.30;;;;;;5041870;28;20470;-67
2023/06/16 02:39:27;;;;;;;3.57;3.37;;;27.80;41.40;;;;;;5037489;28;20480;-67
2023/06/16 02:41:56;;;;;;;3.83;3.53;;;27.70;41.30;;;;;;5014041;28;20441;-67
2023/06/16 02:44:24;;;;;;;5.10;3.30;;;27.70;41.30;;;;;;5026317;28;20483;-68
2023/06/16 02:46:56;;;;;;;3.93;3.63;;;27.70;41.20;;;;;;5035269;28;20684;-67
2023/06/16 02:49:26;;;;;;;3.60;3.40;;;27.70;41.30;;;;;;5041667;28;20819;-67
2023/06/16 02:51:55;;;;;;;3.70;3.40;;;27.70;41.30;;;;;;5035468;28;20934;-67
2023/06/16 02:54:24;;;;;;;4.77;4.37;;;27.70;41.30;;;;;;5021064;28;20441;-68
2023/06/16 02:56:52;;;;;;;3.53;3.20;;;27.70;41.30;;;;;;5023190;28;20982;-67
2023/06/16 02:59:28;;;;;;;3.77;3.47;;;27.70;41.30;;;;;;5019808;28;20444;-68
2023/06/16 03:01:58;;;;;;;3.57;3.30;;;27.70;41.30;;;;;;5027773;28;20658;-67
2023/06/16 03:04:34;;;;;;;4.10;3.50;;;27.70;41.30;;;;;;5022187;28;20483;-67
2023/06/16 03:07:12;;;;;;;6.03;3.87;;;27.70;41.30;;;;;;5024412;28;21003;-67
2023/06/16 03:09:45;;;;;;;4.00;3.70;;;27.70;41.30;;;;;;5028024;28;20459;-67
2023/06/16 03:12:15;;;;;;;3.70;3.50;;;27.70;41.30;;;;;;5016986;28;20436;-67
2023/06/16 03:15:08;;;;;;;3.73;3.37;;;27.70;41.20;;;;;;5018995;28;20954;-67
2023/06/16 03:17:38;;;;;;;3.70;3.40;;;27.60;41.20;;;;;;5023099;28;20554;-68
2023/06/16 03:20:08;;;;;;;3.97;3.67;;;27.60;41.10;;;;;;5023575;28;20475;-67
2023/06/16 03:22:48;;;;;;;3.10;2.90;;;27.60;41.20;;;;;;5020154;28;20515;-67
2023/06/16 03:25:16;;;;;;;3.57;3.30;;;27.60;41.20;;;;;;5023936;28;20581;-67
2023/06/16 03:27:48;;;;;;;3.20;3.00;;;27.60;41.20;;;;;;5017903;28;20476;-68
2023/06/16 03:30:21;;;;;;;3.60;3.30;;;27.60;41.10;;;;;;5051819;28;20440;-68
2023/06/16 03:33:06;;;;;;;4.00;3.70;;;27.60;41.20;;;;;;5023348;28;20468;-67
2023/06/16 03:35:38;;;;;;;4.50;4.10;;;27.60;41.10;;;;;;5018539;28;20443;-67
2023/06/16 03:38:16;;;;;;;3.40;3.20;;;27.60;41.10;;;;;;5025090;28;20870;-67
2023/06/16 03:40:46;;;;;;;3.80;3.50;;;27.60;41.20;;;;;;5012133;28;20631;-68
2023/06/16 03:43:15;;;;;;;4.23;3.83;;;27.60;41.10;;;;;;5041844;28;20475;-67
2023/06/16 03:45:44;;;;;;;3.80;3.50;;;27.60;41.20;;;;;;5031101;28;20970;-67
2023/06/16 03:48:14;;;;;;;4.27;3.77;;;27.60;41.10;;;;;;5031436;28;20545;-67
2023/06/16 03:50:48;;;;;;;3.93;3.63;;;27.60;41.10;;;;;;5042646;28;20503;-68
2023/06/16 03:53:16;;;;;;;3.33;3.10;;;27.60;41.20;;;;;;5026051;28;20474;-67
2023/06/16 03:55:47;;;;;;;3.13;2.93;;;27.60;41.20;;;;;;5019994;28;20449;-67
2023/06/16 03:58:16;;;;;;;3.90;3.60;;;27.50;41.20;;;;;;5023573;28;20534;-67
2023/06/16 04:00:45;;;;;;;3.37;3.10;;;27.50;41.20;;;;;;5035350;28;20453;-68
2023/06/16 04:03:17;;;;;;;3.30;3.00;;;27.50;41.20;;;;;;5032894;28;20499;-67
2023/06/16 04:05:46;;;;;;;3.27;3.00;;;27.50;41.20;;;;;;5024283;28;20493;-66
2023/06/16 04:08:14;;;;;;;4.67;3.60;;;27.50;41.10;;;;;;5034037;28;20468;-67
2023/06/16 04:10:43;;;;;;;4.30;3.90;;;27.50;41.20;;;;;;5026391;28;20433;-67
2023/06/16 04:13:12;;;;;;;3.93;3.63;;;27.50;41.40;;;;;;5014865;28;21050;-67
2023/06/16 04:15:43;;;;;;;3.87;3.50;;;27.50;41.40;;;;;;5015875;28;20875;-66
2023/06/16 04:18:14;;;;;;;3.43;3.23;;;27.50;41.70;;;;;;5022531;28;20459;-66
2023/06/16 04:20:44;;;;;;;3.60;3.40;;;27.50;41.50;;;;;;5012338;28;21037;-68
2023/06/16 04:23:13;;;;;;;4.03;3.73;;;27.50;41.40;;;;;;5018673;28;20479;-68
2023/06/16 04:25:42;;;;;;;3.77;3.47;;;27.50;41.50;;;;;;5032032;28;20479;-68
2023/06/16 04:28:13;;;;;;;3.70;3.37;;;27.50;41.80;;;;;;5023201;28;21039;-67
2023/06/16 04:30:45;;;;;;;3.83;3.53;;;27.50;41.70;;;;;;5026525;28;20835;-68
2023/06/16 04:33:15;;;;;;;3.73;3.43;;;27.50;42.80;;;;;;5023234;28;20452;-68
2023/06/16 04:35:45;;;;;;;4.47;4.07;;;27.40;41.50;;;;;;5021970;28;20948;-68
2023/06/16 04:38:14;;;;;;;3.40;3.20;;;27.40;41.60;;;;;;5026484;28;20475;-67
2023/06/16 04:40:44;;;;;;;5.83;4.13;;;27.40;41.70;;;;;;5017129;28;20461;-67
2023/06/16 04:43:12;;;;;;;3.80;3.50;;;27.40;41.70;;;;;;5024952;28;20471;-67
2023/06/16 04:45:41;;;;;;;4.00;3.60;;;27.40;41.80;;;;;;5025267;28;20976;-67
2023/06/16 04:48:10;;;;;;;3.30;3.00;;;27.40;42.00;;;;;;5023782;28;21019;-68
2023/06/16 04:50:38;;;;;;;4.30;3.93;;;27.40;42.00;;;;;;5021388;28;20544;-67
2023/06/16 04:53:08;;;;;;;4.40;4.00;;;27.40;41.90;;;;;;5040357;28;20510;-67
2023/06/16 04:55:37;;;;;;;4.10;3.80;;;27.40;42.00;;;;;;5023852;28;20450;-67
2023/06/16 04:58:06;;;;;;;3.87;3.57;;;27.40;42.00;;;;;;5040416;28;20509;-68
2023/06/16 05:00:34;;;;;;;4.37;4.00;;;27.40;42.10;;;;;;5032114;28;20428;-67
2023/06/16 05:03:03;;;;;;;5.53;4.03;;;27.40;43.20;;;;;;5029806;28;20527;-66
2023/06/16 05:05:32;;;;;;;4.27;3.87;;;27.40;42.10;;;;;;5029148;28;20472;-68
2023/06/16 05:08:00;;;;;;;4.00;3.70;;;27.30;42.00;;;;;;5019792;28;20539;-68
2023/06/16 05:10:31;;;;;;;4.37;3.97;;;27.30;42.10;;;;;;5028372;28;21060;-67
2023/06/16 05:13:00;;;;;;;4.80;3.70;;;27.30;42.10;;;;;;5012087;28;20472;-67
2023/06/16 05:15:29;;;;;;;3.77;3.47;;;27.30;42.20;;;;;;5026060;28;20525;-67
2023/06/16 05:17:58;;;;;;;4.33;3.97;;;27.30;42.20;;;;;;5015713;28;20463;-68
2023/06/16 05:20:27;;;;;;;3.77;3.43;;;27.30;42.10;;;;;;5021612;28;20457;-67
2023/06/16 05:22:56;;;;;;;3.80;3.50;;;27.30;42.20;;;;;;5018362;28;20476;-66
2023/06/16 05:25:25;;;;;;;3.77;3.47;;;27.30;42.20;;;;;;5007809;28;20567;-68
2023/06/16 05:27:55;;;;;;;4.33;3.93;;;27.30;42.10;;;;;;5038868;28;20475;-67
2023/06/16 05:30:24;;;;;;;4.83;4.33;;;27.30;41.90;;;;;;5033891;28;20452;-66
2023/06/16 05:32:53;;;;;;;6.57;4.50;;;27.30;41.90;;;;;;5021796;28;20473;-66
2023/06/16 05:35:21;;;;;;;5.00;4.60;;;27.30;41.70;;;;;;5024098;28;20454;-67
2023/06/16 05:37:50;;;;;;;4.03;3.70;;;27.30;41.70;;;;;;5034903;28;20536;-67
2023/06/16 05:40:18;;;;;;;3.83;3.53;;;27.30;41.80;;;;;;5022047;28;20448;-68
2023/06/16 05:42:47;;;;;;;3.87;3.57;;;27.30;41.80;;;;;;5022485;28;20478;-67
2023/06/16 05:45:17;;;;;;;4.77;4.37;;;27.30;41.80;;;;;;5032727;28;20478;-68
2023/06/16 05:47:46;;;;;;;4.10;3.67;;;27.30;41.60;;;;;;5039534;28;20927;-67
2023/06/16 05:50:18;;;;;;;4.83;3.10;;;27.30;41.70;;;;;;5045051;28;20508;-67
2023/06/16 05:52:46;;;;;;;4.00;3.70;;;27.30;41.50;;;;;;5020431;28;20475;-67
2023/06/16 05:55:15;;;;;;;3.50;3.30;;;27.30;41.40;;;;;;5044304;28;20496;-66
2023/06/16 05:57:50;;;;;;;4.13;3.83;;;27.30;41.50;;;;;;5033243;28;20880;-66
2023/06/16 06:00:21;;;;;;;3.07;2.87;;;27.30;41.60;;;;;;5026961;28;20443;-66
2023/06/16 06:02:57;;;;;;;3.73;3.43;;;27.30;41.40;;;;;;5030996;28;20988;-68
2023/06/16 06:05:29;;;;;;;4.10;3.80;;;27.30;41.30;;;;;;4997145;28;20471;-65
2023/06/16 06:07:58;;;;;;;7.10;3.70;;;27.30;41.60;;;;;;5026216;28;21190;-67
2023/06/16 06:10:27;;;;;;;3.30;3.10;;;27.30;41.90;;;;;;5027714;28;20540;-67
2023/06/16 06:12:57;;;;;;;3.53;3.23;;;27.30;42.10;;;;;;5023245;28;20483;-67
2023/06/16 06:15:28;;;;;;;3.83;3.53;;;27.30;41.80;;;;;;5025913;28;20499;-67
2023/06/16 06:18:06;;;;;;;3.47;3.13;;;27.30;42.00;;;;;;5042830;28;20525;-67
2023/06/16 06:20:39;;;;;;;4.23;3.93;;;27.30;41.90;;;;;;5025926;28;20457;-68
2023/06/16 06:23:08;;;;;;;4.13;3.80;;;27.30;42.10;;;;;;5017723;28;20479;-67
2023/06/16 06:25:37;;;;;;;3.63;3.33;;;27.30;41.90;;;;;;5032159;28;20838;-67
2023/06/16 06:28:05;;;;;;;3.80;3.60;;;27.30;41.80;;;;;;5039135;28;20494;-67
2023/06/16 06:30:36;;;;;;;3.97;3.67;;;27.30;41.90;;;;;;5023289;28;20814;-66
2023/06/16 06:33:05;;;;;;;4.73;4.33;;;27.30;41.20;;;;;;5039743;28;20503;-67
2023/06/16 06:35:35;;;;;;;3.50;3.20;;;27.30;41.50;;;;;;5018785;28;20464;-67
2023/06/16 06:38:05;;;;;;;4.53;3.80;;;27.30;41.90;;;;;;5028561;28;21125;-67
2023/06/16 06:40:35;;;;;;;4.13;3.73;;;27.30;43.30;;;;;;5035044;28;20922;-67
2023/06/16 06:43:05;;;;;;;3.70;3.40;;;27.20;41.90;;;;;;5040262;28;20464;-67
2023/06/16 06:45:50;;;;;;;6.10;3.90;;;27.30;42.40;;;;;;5038280;28;20483;-67
2023/06/16 06:48:21;;;;;;;3.50;3.20;;;27.30;41.80;;;;;;5022811;28;20465;-67
2023/06/16 06:50:55;;;;;;;4.57;4.17;;;27.20;41.90;;;;;;5033950;28;20455;-67
2023/06/16 06:53:24;;;;;;;3.83;3.53;;;27.20;40.90;;;;;;5021900;28;20482;-67
2023/06/16 06:55:52;;;;;;;4.53;3.30;;;27.20;41.00;;;;;;5023017;28;20495;-67
2023/06/16 06:58:20;;;;;;;3.53;3.33;;;27.20;41.40;;;;;;5019613;28;20468;-67
2023/06/16 07:00:50;;;;;;;3.70;3.40;;;27.20;41.80;;;;;;5006935;28;20540;-67
2023/06/16 07:03:19;;;;;;;3.40;3.10;;;27.20;41.90;;;;;;5021093;28;20998;-65
2023/06/16 07:05:48;;;;;;;3.70;3.50;;;27.20;41.60;;;;;;5018685;28;20447;-67
2023/06/16 07:08:16;;;;;;;4.37;3.90;;;27.20;40.90;;;;;;5029022;28;20545;-67
2023/06/16 07:10:45;;;;;;;5.00;3.37;;;27.20;41.00;;;;;;5025644;28;20455;-67
2023/06/16 07:13:13;;;;;;;3.90;3.60;;;27.20;41.80;;;;;;5032135;28;20485;-66
2023/06/16 07:15:41;;;;;;;4.47;3.67;;;27.20;40.90;;;;;;5019735;28;20462;-65
2023/06/16 07:18:11;;;;;;;4.43;4.03;;;27.20;40.70;;;;;;5032995;28;20499;-67
2023/06/16 07:20:40;;;;;;;5.70;3.80;;;27.20;40.10;;;;;;5029500;28;20494;-67
2023/06/16 07:23:08;;;;;;;4.03;3.57;;;27.20;41.00;;;;;;5038370;28;20489;-67
2023/06/16 07:25:37;;;;;;;5.83;4.50;;;27.20;40.00;;;;;;5025446;28;20428;-67
2023/06/16 07:28:06;;;;;;;3.77;3.40;;;27.20;40.90;;;;;;5021678;28;20561;-67
2023/06/16 07:30:35;;;;;;;5.10;3.77;;;27.20;40.90;;;;;;5022586;28;20957;-67
2023/06/16 07:33:04;;;;;;;6.63;4.33;;;27.20;40.70;;;;;;5036298;28;20491;-67
2023/06/16 07:35:33;;;;;;;4.23;3.83;;;27.20;40.40;;;;;;5019195;28;20456;-67
2023/06/16 07:38:02;;;;;;;3.90;3.50;;;27.20;41.00;;;;;;5017140;28;20499;-67
2023/06/16 07:40:30;;;;;;;3.27;3.07;;;27.20;40.90;;;;;;5035110;28;20500;-67
2023/06/16 07:42:59;;;;;;;4.33;4.00;;;27.20;40.90;;;;;;5026490;28;20523;-67
2023/06/16 07:45:31;;;;;;;3.30;2.90;;;27.20;40.90;;;;;;5040593;28;21029;-67
2023/06/16 07:47:59;;;;;;;3.80;3.50;;;27.20;41.80;;;;;;5018120;28;20477;-66
2023/06/16 07:50:29;;;;;;;3.57;3.27;;;27.20;41.60;;;;;;5020710;28;20440;-67
2023/06/16 07:52:58;;;;;;;3.90;3.60;;;27.20;40.90;;;;;;5034377;28;20473;-66
2023/06/16 07:55:27;;;;;;;3.90;3.60;;;27.20;40.90;;;;;;5022922;28;20455;-67
2023/06/16 07:57:56;;;;;;;3.83;3.40;;;27.20;41.50;;;;;;5037971;28;20450;-67
2023/06/16 08:00:24;;;;;;;3.53;3.27;;;27.20;41.50;;;;;;5014217;28;20504;-67
2023/06/16 08:02:53;;;;;;;3.43;3.13;;;27.20;41.60;;;;;;5016765;28;20480;-67
2023/06/16 08:05:21;;;;;;;3.97;3.67;;;27.20;42.10;;;;;;5022591;28;20450;-67
2023/06/16 08:07:50;;;;;;;3.80;3.50;;;27.20;41.50;;;;;;5030250;28;20473;-67
2023/06/16 08:10:20;;;;;;;4.00;3.70;;;27.20;41.60;;;;;;5008814;28;20437;-66
2023/06/16 08:12:51;;;;;;;3.40;3.10;;;27.20;41.90;;;;;;5027437;28;20452;-67
2023/06/16 08:15:21;;;;;;;5.40;4.20;;;27.10;42.10;;;;;;5026375;28;20439;-67
2023/06/16 08:17:49;;;;;;;4.87;3.90;;;27.10;40.10;;;;;;5036496;28;20499;-67
2023/06/16 08:20:19;;;;;;;7.13;3.97;;;;;;;;;;5032185;28;20456;-67
2023/06/16 08:22:47;;;;;;;5.37;4.60;;;26.50;35.10;;;;;;5019749;28;20846;-67
2023/06/16 08:25:16;;;;;;;5.10;4.60;;;26.60;37.50;;;;;;5018577;28;20497;-67
2023/06/16 08:27:46;;;;;;;6.10;4.20;;;26.70;37.40;;;;;;5019153;28;20878;-68
2023/06/16 08:31:05;;;;;;;8.83;4.40;;;26.70;37.80;;;;;;5019526;28;20455;-65
2023/06/16 08:33:34;;;;;;;6.90;4.90;;;27.00;34.40;;;;;;4979965;28;20543;-65
2023/06/16 08:36:03;;;;;;;9.60;4.87;;;26.90;35.60;;;;;;5004531;28;20468;-64
2023/06/16 08:38:32;;;;;;;4.70;4.23;;;26.90;35.80;;;;;;5008035;28;21061;-67
2023/06/16 08:41:06;;;;;;;6.50;4.70;;;26.90;36.20;;;;;;5010104;28;20961;-66
2023/06/16 08:43:37;;;;;;;4.90;4.47;;;26.90;36.70;;;;;;5026279;28;20477;-67
2023/06/16 08:46:08;;;;;;;4.70;4.30;;;26.90;37.10;;;;;;5022138;28;20670;-66
2023/06/16 08:48:38;;;;;;;4.73;4.20;;;26.90;37.30;;;;;;5014742;28;20486;-67
2023/06/16 08:51:09;;;;;;;5.10;4.47;;;26.90;37.70;;;;;;5029887;28;20881;-66
2023/06/16 08:53:41;;;;;;;4.77;4.37;;;26.90;37.70;;;;;;5010601;28;20509;-65
2023/06/16 08:56:10;;;;;;;4.80;4.40;;;27.00;38.10;;;;;;5021138;28;20880;-67
2023/06/16 08:58:42;;;;;;;4.50;4.13;;;27.00;38.30;;;;;;5016193;28;20902;-66
2023/06/16 09:01:10;;;;;;;4.40;4.00;;;27.00;38.70;;;;;;5029328;28;20450;-68
2023/06/16 09:03:39;;;;;;;4.47;4.10;;;27.00;39.10;;;;;;5023584;28;20869;-66
2023/06/16 09:06:10;;;;;;;5.00;4.33;;;27.00;39.40;;;;;;5017217;28;20459;-67
2023/06/16 09:08:38;;;;;;;5.73;5.23;;;27.00;39.30;;;;;;5018322;28;20487;-67
2023/06/16 09:11:08;;;;;;;7.80;4.63;;;26.80;35.60;;;;;;5002181;28;20463;-68
2023/06/16 09:13:43;;;;;;;6.80;4.60;;;26.80;36.40;;;;;;5017703;28;20478;-66
2023/06/16 09:16:17;;;;;;;5.97;4.40;;;26.80;36.50;;;;;;5033776;28;21081;-66
2023/06/16 09:18:46;;;;;;;6.33;4.67;;;26.80;36.30;;;;;;5027579;28;20476;-67
2023/06/16 09:21:20;;;;;;;4.50;4.10;;;26.80;36.40;;;;;;5022869;28;20454;-67
2023/06/16 09:23:57;;;;;;;5.20;4.63;;;26.90;36.80;;;;;;5017306;28;20505;-67
2023/06/16 09:26:30;;;;;;;7.60;5.07;;;26.90;37.20;;;;;;5022861;28;20559;-67
2023/06/16 09:29:00;;;;;;;5.33;4.83;;;26.90;37.20;;;;;;5021035;28;20574;-66
2023/06/16 09:31:29;;;;;;;5.77;4.97;;;27.00;37.70;;;;;;5020760;28;20447;-71
2023/06/16 09:34:06;;;;;;;7.50;4.43;;;27.10;36.30;;;;;;5021090;28;20566;-72
2023/06/16 09:36:35;;;;;;;9.45;4.75;;;27.20;32.90;;;;;;5034550;28;20520;-72
2023/06/16 09:39:05;;;;;;;8.00;4.90;;;27.00;31.30;;;;;;5026795;28;20237;-71
2023/06/16 09:41:34;;;;;;;8.60;4.90;;;26.80;31.90;;;;;;5014729;28;20447;-71
2023/06/16 09:44:05;;;;;;;5.47;4.90;;;26.80;33.10;;;;;;5018344;28;20478;-72
2023/06/16 09:46:35;;;;;;;7.33;4.50;;;26.80;33.70;;;;;;5022730;28;20481;-71
2023/06/16 09:49:04;;;;;;;6.40;4.23;;;26.80;34.50;;;;;;5034905;28;20478;-72
2023/06/16 09:51:32;;;;;;;6.20;3.87;;;26.80;35.00;;;;;;5021858;28;20451;-71
2023/06/16 09:54:01;;;;;;;8.23;5.57;;;26.80;35.40;;;;;;5013273;28;20481;-71
2023/06/16 09:56:30;;;;;;;7.90;4.63;;;26.90;32.00;;;;;;5028347;28;20587;-72
2023/06/16 09:58:59;;;;;;;5.90;4.30;;;26.90;33.40;;;;;;5040241;28;20888;-72
2023/06/16 10:01:30;;;;;;;5.53;5.03;;;27.10;33.50;;;;;;5019699;28;20443;-72
2023/06/16 10:04:00;;;;;;;7.77;5.00;;;27.10;33.30;;;;;;5016319;28;20548;-71
2023/06/16 10:06:31;;;;;;;5.60;5.10;;;27.20;32.90;;;;;;5037074;28;20464;-72
2023/06/16 10:13:48;;;;;;;4.93;4.43;;;27.40;31.40;;;;;;5014889;28;20643;-72
2023/06/16 10:16:18;;;;;;;5.70;5.00;;;27.20;31.70;;;;;;5012496;28;20449;-71
2023/06/16 10:18:50;;;;;;;5.73;4.70;;;27.20;31.80;;;;;;5018077;28;20467;-70
2023/06/16 10:21:20;;;;;;;5.13;4.73;;;27.20;32.40;;;;;;5024314;28;21016;-71
2023/06/16 10:23:50;;;;;;;5.90;4.70;;;27.20;32.90;;;;;;5025072;28;21054;-72
2023/06/16 10:26:20;;;;;;;7.73;5.23;;;27.20;33.20;;;;;;5024273;28;20468;-72
2023/06/16 10:28:49;;;;;;;4.40;3.97;;;27.30;33.80;;;;;;5036569;28;20550;-71
2023/06/16 10:31:18;;;;;;;5.00;4.50;;;27.30;34.20;;;;;;5025556;28;20427;-70
2023/06/16 10:33:56;;;;;;;4.70;4.30;;;27.30;34.30;;;;;;5020115;28;20481;-72
2023/06/16 10:36:28;;;;;;;4.50;4.10;;;27.30;34.50;;;;;;5015400;28;20475;-72
2023/06/16 10:39:03;;;;;;;5.30;4.80;;;27.30;34.90;;;;;;5042904;28;20999;-71
2023/06/16 10:41:31;;;;;;;4.87;4.47;;;27.40;35.20;;;;;;5024281;28;20696;-71
2023/06/16 10:44:22;;;;;;;5.53;4.00;;;27.40;35.30;;;;;;5037434;28;21081;-71
2023/06/16 10:47:23;;;;;;;5.63;4.87;;;27.40;35.40;;;;;;5021355;28;20582;-71
2023/06/16 10:49:55;;;;;;;4.80;4.40;;;27.40;33.30;;;;;;5015025;28;20511;-72
2023/06/16 10:52:35;;;;;;;4.40;4.00;;;27.40;34.80;;;;;;5039657;28;20848;-72
2023/06/16 10:55:35;;;;;;;4.50;4.20;;;27.40;35.90;;;;;;5029011;28;20460;-72
2023/06/16 10:58:29;;;;;;;4.87;4.40;;;27.40;34.80;;;;;;5014108;28;20518;-72
2023/06/16 11:01:03;;;;;;;5.90;4.77;;;27.40;35.60;;;;;;5032307;28;20460;-72
2023/06/16 11:03:36;;;;;;;4.50;4.20;;;27.40;35.60;;;;;;5017021;28;20482;-72
2023/06/16 11:06:07;;;;;;;5.27;3.80;;;27.40;35.90;;;;;;5019277;28;20464;-71
2023/06/16 11:08:53;;;;;;;4.10;3.80;;;27.40;35.40;;;;;;5010893;28;20530;-71
2023/06/16 11:11:22;;;;;;;4.57;4.17;;;27.40;35.40;;;;;;5033858;28;20436;-71
2023/06/16 11:13:51;;;;;;;4.20;3.90;;;27.40;35.90;;;;;;5039474;28;20586;-72
2023/06/16 11:16:19;;;;;;;4.37;4.07;;;27.50;36.40;;;;;;5023253;28;20500;-72
2023/06/16 11:18:51;;;;;;;4.30;3.90;;;27.40;35.90;;;;;;5026383;28;20476;-72
2023/06/16 11:21:25;;;;;;;5.03;4.00;;;27.50;36.40;;;;;;5024580;28;20487;-72
2023/06/16 11:23:53;;;;;;;4.57;4.17;;;27.50;36.20;;;;;;5012293;28;20505;-72
2023/06/16 11:26:22;;;;;;;4.13;3.83;;;27.50;36.50;;;;;;5040207;28;20494;-70
2023/06/16 11:28:52;;;;;;;4.30;3.93;;;27.50;36.80;;;;;;5027271;28;20489;-72
2023/06/16 11:31:21;;;;;;;4.73;4.33;;;27.50;36.30;;;;;;5040086;28;20448;-72
2023/06/16 11:33:54;;;;;;;5.00;4.27;;;27.50;36.20;;;;;;5034561;28;20479;-70
2023/06/16 11:36:25;;;;;;;4.97;4.50;;;27.50;36.50;;;;;;5012991;28;20967;-72
2023/06/16 11:38:56;;;;;;;4.60;4.30;;;27.50;37.10;;;;;;5029066;28;20974;-72
2023/06/16 11:41:29;;;;;;;5.13;4.10;;;27.50;37.00;;;;;;5026670;28;20467;-70
2023/06/16 11:43:58;;;;;;;3.80;3.50;;;27.50;37.10;;;;;;5037222;28;20475;-72
2023/06/16 11:46:29;;;;;;;4.30;4.00;;;27.50;37.40;;;;;;5024159;28;20492;-72
2023/06/16 11:48:58;;;;;;;5.27;4.47;;;27.50;37.10;;;;;;5015067;28;20479;-71
2023/06/16 11:51:29;;;;;;;4.37;4.07;;;27.50;35.70;;;;;;5022821;28;20456;-71
2023/06/16 11:53:58;;;;;;;5.00;4.50;;;27.50;36.90;;;;;;5030421;28;20580;-72
2023/06/16 11:56:27;;;;;;;4.17;3.80;;;27.30;32.10;;;;;;5032404;28;20455;-71
2023/06/16 11:58:55;;;;;;;5.27;4.77;;;27.30;33.20;;;;;;5016145;28;20530;-71
2023/06/16 12:01:25;;;;;;;5.40;4.57;;;27.30;34.00;;;;;;5025273;28;20466;-72
2023/06/16 12:03:57;;;;;;;6.70;4.43;;;27.30;33.00;;;;;;5027462;28;20475;-71
2023/06/16 12:06:37;;;;;;;5.43;4.70;;;27.30;33.70;;;;;;5020056;28;20452;-72
2023/06/16 12:09:05;;;;;;;4.37;3.97;;;27.30;33.50;;;;;;5009829;28;21096;-72
2023/06/16 12:11:36;;;;;;;3.93;3.63;;;27.30;33.40;;;;;;5022751;28;20537;-72
2023/06/16 12:14:04;;;;;;;4.50;3.97;;;27.30;33.70;;;;;;5026777;28;20524;-72
2023/06/16 12:16:33;;;;;;;4.20;3.90;;;27.30;34.40;;;;;;5023035;28;20530;-70
2023/06/16 12:19:02;;;;;;;4.30;4.00;;;27.30;35.20;;;;;;5032652;28;20487;-71
2023/06/16 12:21:31;;;;;;;4.47;4.07;;;27.30;35.60;;;;;;5018022;28;20435;-72
2023/06/16 12:24:02;;;;;;;4.47;4.07;;;27.30;35.70;;;;;;5018413;28;20476;-71
2023/06/16 12:26:33;;;;;;;4.07;3.47;;;27.30;35.60;;;;;;5011647;28;20525;-71
2023/06/16 12:29:10;;;;;;;4.60;4.20;;;27.30;35.10;;;;;;5024649;28;20476;-72
2023/06/16 12:31:51;;;;;;;4.70;4.33;;;27.30;35.20;;;;;;5033956;28;20444;-72
2023/06/16 12:34:25;;;;;;;4.17;3.87;;;27.30;34.50;;;;;;5013768;28;20471;-71
2023/06/16 12:36:55;;;;;;;4.40;4.03;;;27.40;35.10;;;;;;5024660;28;20486;-69
2023/06/16 12:39:26;;;;;;;3.33;3.03;;;27.30;35.70;;;;;;5009510;28;20458;-67
2023/06/16 12:42:02;;;;;;;4.80;4.40;;;27.40;36.00;;;;;;5028265;28;20490;-67
2023/06/16 12:44:44;;;;;;;4.27;3.97;;;27.40;37.00;;;;;;5009625;28;20480;-67
2023/06/16 12:47:14;;;;;;;5.30;4.80;;;27.40;37.10;;;;;;5029038;28;20474;-67
2023/06/16 12:49:43;;;;;;;4.57;3.70;;;27.40;36.20;;;;;;5022298;28;20486;-66
2023/06/16 12:52:13;;;;;;;5.20;4.10;;;27.30;35.40;;;;;;5028110;28;20459;-67
2023/06/16 12:54:44;;;;;;;4.13;3.73;;;27.40;34.70;;;;;;5033236;28;20936;-65
2023/06/16 12:57:13;;;;;;;5.10;4.60;;;27.30;34.80;;;;;;5033043;28;20462;-67
2023/06/16 12:59:42;;;;;;;3.87;3.57;;;27.40;34.80;;;;;;5020513;28;20456;-67
2023/06/16 13:02:11;;;;;;;4.10;3.50;;;27.40;34.80;;;;;;5021470;28;20461;-67
2023/06/16 13:04:40;;;;;;;4.20;3.80;;;27.40;35.20;;;;;;5036659;28;20464;-67
2023/06/16 13:07:08;;;;;;;4.43;4.03;;;27.40;35.60;;;;;;5027610;28;20440;-67
2023/06/16 13:09:37;;;;;;;3.83;3.53;;;27.40;35.70;;;;;;5018458;28;20476;-66
2023/06/16 13:12:09;;;;;;;4.30;3.90;;;27.40;36.50;;;;;;5036766;28;20439;-66